createdAt,value
2019-02-04T00:02:01.332Z,9.70
2019-02-04T00:04:38.844Z,9.43
2019-02-04T00:07:16.382Z,8.63
2019-02-04T00:09:53.899Z,8.97
2019-02-04T00:12:31.446Z,9.30
2019-02-04T00:15:09.978Z,8.70
2019-02-04T00:17:47.529Z,8.40
2019-02-04T00:20:25.058Z,9.10
2019-02-04T00:23:02.602Z,8.27
2019-02-04T00:25:40.109Z,8.30
2019-02-04T00:28:17.671Z,7.90
2019-02-04T00:30:55.245Z,7.90
2019-02-04T00:33:32.808Z,8.37
2019-02-04T00:36:10.317Z,7.73
2019-02-04T00:38:47.849Z,7.60
2019-02-04T00:41:25.372Z,7.60
2019-02-04T00:44:02.908Z,8.60
2019-02-04T00:46:51.801Z,7.77
2019-02-04T00:49:17.980Z,8.63
2019-02-04T00:51:55.542Z,8.50
2019-02-04T00:54:33.057Z,8.60
2019-02-04T00:57:10.606Z,9.13
2019-02-04T00:59:48.127Z,8.83
2019-02-04T01:02:25.678Z,9.63
2019-02-04T01:05:03.183Z,9.60
2019-02-04T01:07:40.735Z,8.93
2019-02-04T01:10:21.605Z,9.50
2019-02-04T01:12:59.347Z,8.83
2019-02-04T01:15:36.844Z,8.17
2019-02-04T01:18:14.372Z,8.00
2019-02-04T01:20:51.881Z,8.43
2019-02-04T01:23:29.409Z,8.37
2019-02-04T01:26:06.923Z,7.53
2019-02-04T01:28:44.478Z,7.53
2019-02-04T01:31:21.979Z,7.23
2019-02-04T01:33:59.512Z,7.10
2019-02-04T01:36:37.020Z,6.87
2019-02-04T01:39:14.555Z,6.37
2019-02-04T01:41:52.097Z,5.90
2019-02-04T01:44:29.621Z,5.87
2019-02-04T01:47:14.422Z,5.43
2019-02-04T01:49:44.700Z,5.73
2019-02-04T01:52:22.231Z,5.87
2019-02-04T01:54:59.757Z,5.10
2019-02-04T01:57:37.295Z,5.23
2019-02-04T02:00:25.811Z,5.30
2019-02-04T02:03:03.269Z,5.77
2019-02-04T02:05:40.773Z,5.37
2019-02-04T02:08:18.324Z,5.90
2019-02-04T02:10:55.832Z,5.53
2019-02-04T02:13:33.375Z,5.67
2019-02-04T02:16:10.850Z,6.37
2019-02-04T02:18:48.390Z,6.17
2019-02-04T02:21:25.900Z,6.33
2019-02-04T02:24:03.439Z,7.03
2019-02-04T02:26:40.980Z,6.63
2019-02-04T02:29:18.516Z,6.90
2019-02-04T02:31:56.025Z,8.67
2019-02-04T02:34:33.557Z,8.43
2019-02-04T02:37:11.074Z,8.17
2019-02-04T02:39:48.609Z,7.40
2019-02-04T02:42:26.182Z,8.07
2019-02-04T02:45:03.690Z,9.53
2019-02-04T02:47:41.229Z,8.93
2019-02-04T02:50:18.749Z,8.67
2019-02-04T02:52:56.282Z,8.80
2019-02-04T02:55:33.796Z,8.97
2019-02-04T02:58:11.334Z,9.83
2019-02-04T03:00:48.837Z,9.87
2019-02-04T03:03:26.376Z,9.30
2019-02-04T03:06:03.890Z,9.37
2019-02-04T03:08:41.420Z,8.83
2019-02-04T03:11:18.943Z,8.47
2019-02-04T03:13:56.479Z,8.63
2019-02-04T03:16:33.989Z,9.00
2019-02-04T03:19:11.530Z,8.53
2019-02-04T03:21:49.058Z,8.53
2019-02-04T03:24:26.594Z,8.97
2019-02-04T03:27:04.128Z,9.57
2019-02-04T03:29:41.659Z,9.93
2019-02-04T03:32:19.179Z,9.60
2019-02-04T03:34:56.716Z,9.00
2019-02-04T03:37:34.229Z,8.80
2019-02-04T03:40:13.791Z,9.23
2019-02-04T03:42:51.329Z,9.43
2019-02-04T03:45:28.841Z,8.83
2019-02-04T03:48:09.549Z,9.47
2019-02-04T03:50:43.908Z,10.27
2019-02-04T03:53:21.457Z,8.60
2019-02-04T03:55:58.967Z,8.77
2019-02-04T03:58:36.498Z,8.83
2019-02-04T04:01:14.020Z,8.90
2019-02-04T04:03:51.549Z,9.07
2019-02-04T04:06:29.058Z,8.83
2019-02-04T04:09:07.940Z,9.17
2019-02-04T04:11:45.451Z,9.40
2019-02-04T04:14:22.985Z,9.83
2019-02-04T04:17:00.487Z,9.23
2019-02-04T04:19:38.055Z,9.43
2019-02-04T04:22:15.572Z,8.20
2019-02-04T04:24:53.118Z,8.90
2019-02-04T04:27:30.643Z,8.03
2019-02-04T04:30:10.753Z,8.37
2019-02-04T04:32:48.255Z,8.73
2019-02-04T04:35:25.780Z,9.13
2019-02-04T04:38:03.301Z,9.77
2019-02-04T04:40:40.854Z,8.87
2019-02-04T04:43:18.369Z,9.20
2019-02-04T04:45:55.930Z,8.97
2019-02-04T04:48:33.459Z,8.00
2019-02-04T04:51:10.958Z,7.97
2019-02-04T04:53:48.583Z,9.13
2019-02-04T04:56:26.102Z,8.57
2019-02-04T04:59:03.637Z,9.07
2019-02-04T05:01:41.144Z,8.93
2019-02-04T05:04:18.669Z,9.43
2019-02-04T05:06:56.185Z,9.03
2019-02-04T05:09:33.731Z,9.13
2019-02-04T05:12:11.266Z,8.27
2019-02-04T05:14:48.803Z,8.70
2019-02-04T05:17:26.332Z,9.63
2019-02-04T05:20:03.892Z,8.33
2019-02-04T05:22:41.417Z,8.47
2019-02-04T05:25:18.964Z,8.70
2019-02-04T05:27:56.520Z,9.00
2019-02-04T05:30:34.048Z,7.97
2019-02-04T05:33:11.578Z,9.00
2019-02-04T05:35:49.104Z,8.03
2019-02-04T05:38:26.623Z,8.37
2019-02-04T05:41:04.148Z,7.57
2019-02-04T05:43:41.662Z,7.77
2019-02-04T05:46:19.197Z,7.70
2019-02-04T05:48:56.809Z,7.80
2019-02-04T05:51:34.322Z,8.00
2019-02-04T05:54:11.858Z,8.17
2019-02-04T05:56:49.373Z,8.87
2019-02-04T05:59:26.929Z,8.03
2019-02-04T06:02:04.434Z,8.00
2019-02-04T06:04:41.993Z,7.27
2019-02-04T06:07:19.505Z,7.77
2019-02-04T06:09:57.038Z,6.93
2019-02-04T06:12:35.078Z,7.90
2019-02-04T06:15:13.006Z,7.53
2019-02-04T06:17:50.938Z,7.67
2019-02-04T06:20:28.419Z,7.63
2019-02-04T06:23:05.955Z,7.40
2019-02-04T06:25:45.438Z,7.23
2019-02-04T06:28:21.014Z,6.73
2019-02-04T06:30:58.580Z,7.60
2019-02-04T06:33:36.092Z,7.17
2019-02-04T06:36:13.626Z,7.03
2019-02-04T06:38:51.143Z,7.30
2019-02-04T06:41:28.674Z,7.10
2019-02-04T06:44:06.248Z,8.00
2019-02-04T06:46:43.788Z,8.07
2019-02-04T06:49:21.322Z,8.80
2019-02-04T06:51:58.835Z,8.10
2019-02-04T06:54:36.366Z,7.83
2019-02-04T06:57:13.879Z,8.37
2019-02-04T06:59:51.394Z,8.10
2019-02-04T07:02:28.918Z,8.60
2019-02-04T07:05:06.832Z,8.63
2019-02-04T07:07:44.338Z,8.70
2019-02-04T07:10:24.391Z,9.10
2019-02-04T07:13:01.919Z,9.37
2019-02-04T07:15:39.473Z,12.03
2019-02-04T07:18:16.996Z,16.37
2019-02-04T07:20:54.543Z,17.77
2019-02-04T07:23:32.056Z,19.30
2019-02-04T07:26:09.588Z,17.10
2019-02-04T07:28:47.145Z,19.63
2019-02-04T07:31:24.643Z,20.13
2019-02-04T07:34:02.164Z,19.20
2019-02-04T07:36:39.727Z,16.50
2019-02-04T07:39:17.266Z,14.50
2019-02-04T07:41:54.802Z,13.30
2019-02-04T07:44:32.342Z,11.97
2019-02-04T07:47:09.874Z,13.20
2019-02-04T07:49:47.372Z,12.90
2019-02-04T07:52:24.901Z,13.77
2019-02-04T07:55:02.426Z,13.83
2019-02-04T07:57:39.925Z,14.17
2019-02-04T08:00:21.690Z,15.00
2019-02-04T08:02:59.198Z,15.63
2019-02-04T08:05:36.757Z,15.20
2019-02-04T08:08:14.271Z,14.67
2019-02-04T08:10:51.791Z,14.90
2019-02-04T08:13:29.324Z,14.87
2019-02-04T08:16:06.937Z,16.77
2019-02-04T08:18:44.459Z,15.43
2019-02-04T08:21:25.594Z,15.40
2019-02-04T08:24:03.118Z,14.63
2019-02-04T08:26:40.676Z,13.87
2019-02-04T08:29:18.207Z,13.83
2019-02-04T08:31:55.734Z,13.20
2019-02-04T08:34:33.226Z,13.73
2019-02-04T08:37:10.749Z,13.90
2019-02-04T08:39:48.260Z,13.50
2019-02-04T08:42:25.786Z,15.43
2019-02-04T08:45:03.343Z,14.43
2019-02-04T08:47:40.859Z,13.50
2019-02-04T08:50:20.704Z,12.40
2019-02-04T08:52:58.227Z,14.00
2019-02-04T08:55:36.254Z,12.47
2019-02-04T08:58:13.781Z,13.50
2019-02-04T09:00:51.324Z,14.27
2019-02-04T09:03:28.835Z,15.30
2019-02-04T09:06:06.401Z,13.57
2019-02-04T09:08:43.902Z,16.27
2019-02-04T09:11:21.451Z,15.27
2019-02-04T09:13:58.979Z,13.60
2019-02-04T09:16:36.499Z,13.10
2019-02-04T09:19:14.035Z,14.63
2019-02-04T09:21:51.572Z,14.50
2019-02-04T09:24:29.101Z,14.67
2019-02-04T09:27:06.693Z,14.77
2019-02-04T09:29:44.230Z,15.47
2019-02-04T09:32:21.781Z,14.30
2019-02-04T09:34:59.295Z,14.03
2019-02-04T09:37:36.831Z,14.20
2019-02-04T09:40:19.388Z,14.37
2019-02-04T09:42:56.926Z,13.57
2019-02-04T09:45:34.430Z,13.23
2019-02-04T09:48:15.450Z,13.33
2019-02-04T09:50:56.857Z,12.53
2019-02-04T09:53:34.369Z,11.90
2019-02-04T09:56:11.919Z,12.47
2019-02-04T09:58:49.423Z,12.47
2019-02-04T10:01:27.073Z,13.50
2019-02-04T10:04:04.476Z,13.50
2019-02-04T10:06:42.021Z,13.77
2019-02-04T10:09:19.562Z,13.20
2019-02-04T10:11:57.091Z,13.23
2019-02-04T10:14:34.597Z,13.53
2019-02-04T10:17:12.161Z,13.50
2019-02-04T10:19:49.723Z,14.33
2019-02-04T10:22:27.244Z,14.33
2019-02-04T10:25:04.764Z,13.07
2019-02-04T10:27:42.322Z,14.33
2019-02-04T10:30:22.489Z,14.37
2019-02-04T10:33:00.201Z,13.43
2019-02-04T10:35:37.540Z,13.33
2019-02-04T10:38:16.491Z,12.87
2019-02-04T10:40:52.581Z,12.63
2019-02-04T10:43:30.134Z,12.67
2019-02-04T10:46:07.639Z,11.90
2019-02-04T10:48:45.284Z,12.37
2019-02-04T10:51:22.741Z,11.10
2019-02-04T10:54:00.222Z,11.70
2019-02-04T10:56:37.759Z,11.33
2019-02-04T10:59:15.272Z,10.30
2019-02-04T11:01:52.837Z,10.63
2019-02-04T11:04:30.355Z,10.37
2019-02-04T11:07:07.916Z,10.37
2019-02-04T11:09:45.418Z,10.73
2019-02-04T11:12:22.936Z,10.47
2019-02-04T11:15:00.537Z,11.27
2019-02-04T11:17:37.952Z,11.30
2019-02-04T11:20:25.791Z,10.80
2019-02-04T11:23:03.329Z,11.90
2019-02-04T11:25:41.199Z,11.50
2019-02-04T11:28:18.920Z,10.37
2019-02-04T11:31:06.601Z,10.63
2019-02-04T11:33:44.156Z,10.57
2019-02-04T11:36:21.622Z,10.97
2019-02-04T11:38:59.174Z,10.83
2019-02-04T11:41:36.656Z,10.40
2019-02-04T11:44:14.181Z,10.70
2019-02-04T11:46:51.753Z,11.03
2019-02-04T11:49:29.250Z,9.93
2019-02-04T11:52:06.786Z,9.53
2019-02-04T11:54:44.325Z,10.77
2019-02-04T11:57:21.917Z,10.83
2019-02-04T11:59:59.448Z,10.53
2019-02-04T12:02:36.980Z,10.30
2019-02-04T12:05:16.638Z,10.00
2019-02-04T12:07:54.178Z,10.07
2019-02-04T12:11:19.530Z,10.07
2019-02-04T12:13:57.061Z,9.00
2019-02-04T12:16:34.574Z,10.23
2019-02-04T12:19:12.148Z,10.30
2019-02-04T12:21:49.777Z,10.03
2019-02-04T12:24:27.218Z,10.07
2019-02-04T12:27:04.747Z,10.03
2019-02-04T12:29:42.274Z,9.50
2019-02-04T12:32:19.818Z,9.70
2019-02-04T12:34:57.318Z,9.80
2019-02-04T12:37:34.878Z,10.27
2019-02-04T12:40:13.495Z,9.93
2019-02-04T12:42:51.021Z,10.00
2019-02-04T12:45:31.420Z,9.73
2019-02-04T12:48:08.949Z,9.03
2019-02-04T12:50:46.448Z,9.03
2019-02-04T12:53:23.999Z,8.80
2019-02-04T12:56:01.529Z,9.60
2019-02-04T12:58:39.086Z,10.33
2019-02-04T13:01:16.602Z,10.00
2019-02-04T13:03:54.133Z,8.40
2019-02-04T13:06:31.637Z,8.97
2019-02-04T13:09:12.023Z,8.73
2019-02-04T13:11:49.539Z,8.97
2019-02-04T13:14:27.074Z,9.23
2019-02-04T13:17:04.602Z,9.43
2019-02-04T13:19:42.125Z,9.60
2019-02-04T13:22:19.625Z,10.73
2019-02-04T13:24:57.158Z,9.47
2019-02-04T13:27:34.720Z,9.17
2019-02-04T13:30:15.367Z,9.10
2019-02-04T13:32:52.917Z,8.63
2019-02-04T13:35:30.976Z,7.40
2019-02-04T13:38:08.097Z,9.07
2019-02-04T13:40:46.456Z,8.17
2019-02-04T13:43:23.982Z,7.83
2019-02-04T13:46:01.514Z,8.80
2019-02-04T13:48:39.054Z,7.77
2019-02-04T13:51:16.590Z,8.83
2019-02-04T13:53:57.038Z,8.13
2019-02-04T13:56:31.646Z,7.80
2019-02-04T13:59:09.208Z,9.07
2019-02-04T14:01:46.725Z,7.30
2019-02-04T14:04:24.255Z,6.60
2019-02-04T14:07:01.778Z,6.13
2019-02-04T14:09:39.308Z,6.17
2019-02-04T14:12:16.826Z,6.30
2019-02-04T14:14:54.369Z,6.10
2019-02-04T14:17:31.883Z,5.97
2019-02-04T14:20:12.088Z,5.90
2019-02-04T14:22:49.623Z,5.77
2019-02-04T14:25:27.321Z,5.93
2019-02-04T14:28:05.691Z,6.10
2019-02-04T14:30:42.620Z,5.57
2019-02-04T14:33:20.143Z,6.33
2019-02-04T14:35:57.670Z,5.50
2019-02-04T14:38:35.201Z,6.00
2019-02-04T14:41:12.736Z,5.50
2019-02-04T14:44:03.449Z,7.17
2019-02-04T14:47:33.769Z,6.20
2019-02-04T14:51:05.434Z,5.40
2019-02-04T14:54:16.606Z,4.87
2019-02-04T14:57:39.738Z,6.10
2019-02-04T15:00:55.168Z,6.20
2019-02-04T15:03:57.649Z,6.57
2019-02-04T15:07:02.242Z,7.13
2019-02-04T15:10:20.443Z,7.73
2019-02-04T15:14:15.201Z,7.50
2019-02-04T15:17:26.455Z,6.60
2019-02-04T15:20:54.572Z,6.70
2019-02-04T15:24:09.091Z,6.50
2019-02-04T15:27:48.875Z,8.13
2019-02-04T15:31:01.295Z,7.40
2019-02-04T15:34:13.009Z,8.73
2019-02-04T15:37:21.911Z,8.50
2019-02-04T15:40:51.228Z,9.03
2019-02-04T15:44:37.310Z,8.80
2019-02-04T15:47:57.498Z,8.93
2019-02-04T15:51:16.628Z,10.67
2019-02-04T15:53:54.463Z,17.03
2019-02-04T15:56:32.202Z,14.70
2019-02-04T15:59:09.902Z,10.80
2019-02-04T16:01:47.617Z,10.03
2019-02-04T16:04:39.361Z,9.07
2019-02-04T16:07:17.701Z,8.73
2019-02-04T16:09:55.237Z,9.27
2019-02-04T16:12:32.983Z,9.33
2019-02-04T16:15:12.010Z,9.40
2019-02-04T16:17:49.720Z,9.00
2019-02-04T16:20:28.442Z,9.37
2019-02-04T16:23:06.145Z,9.77
2019-02-04T16:25:43.973Z,10.50
2019-02-04T16:28:21.867Z,11.73
2019-02-04T16:30:59.593Z,10.33
2019-02-04T16:33:37.225Z,10.10
2019-02-04T16:36:14.764Z,10.67
2019-02-04T16:38:52.263Z,11.60
2019-02-04T16:41:29.809Z,10.13
2019-02-04T16:44:07.446Z,10.60
2019-02-04T16:46:44.980Z,10.70
2019-02-04T16:49:22.530Z,10.60
2019-02-04T16:52:00.050Z,11.60
2019-02-04T16:54:37.581Z,11.17
2019-02-04T16:57:15.105Z,11.17
2019-02-04T16:59:52.670Z,10.03
2019-02-04T17:02:30.189Z,10.13
2019-02-04T17:05:09.677Z,11.23
2019-02-04T17:07:47.181Z,11.90
2019-02-04T17:10:25.478Z,10.93
2019-02-04T17:13:02.998Z,10.67
2019-02-04T17:15:40.529Z,10.23
2019-02-04T17:18:18.040Z,11.83
2019-02-04T17:20:55.604Z,10.93
2019-02-04T17:23:33.132Z,10.50
2019-02-04T17:26:10.679Z,11.20
2019-02-04T17:28:48.233Z,10.47
2019-02-04T17:31:25.746Z,10.53
2019-02-04T17:34:03.255Z,11.97
2019-02-04T17:36:40.767Z,10.93
2019-02-04T17:39:18.291Z,11.03
2019-02-04T17:41:55.831Z,11.53
2019-02-04T17:44:33.375Z,12.13
2019-02-04T17:47:10.900Z,11.83
2019-02-04T17:49:48.419Z,11.93
2019-02-04T17:52:26.114Z,14.77
2019-02-04T17:55:03.448Z,16.30
2019-02-04T17:57:40.953Z,15.73
2019-02-04T18:00:25.495Z,14.57
2019-02-04T18:03:03.039Z,13.60
2019-02-04T18:05:40.658Z,12.70
2019-02-04T18:08:18.181Z,10.10
2019-02-04T18:10:55.712Z,10.80
2019-02-04T18:13:33.229Z,10.83
2019-02-04T18:16:10.762Z,10.30
2019-02-04T18:18:48.277Z,10.83
2019-02-04T18:21:25.807Z,9.53
2019-02-04T18:24:03.329Z,9.53
2019-02-04T18:26:40.888Z,9.27
2019-02-04T18:29:18.483Z,9.33
2019-02-04T18:31:56.013Z,10.20
2019-02-04T18:34:33.522Z,10.33
2019-02-04T18:37:11.053Z,10.47
2019-02-04T18:39:48.589Z,10.97
2019-02-04T18:42:26.110Z,10.60
2019-02-04T18:45:03.665Z,11.43
2019-02-04T18:47:41.197Z,10.00
2019-02-04T18:50:19.250Z,9.27
2019-02-04T18:52:56.747Z,8.37
2019-02-04T18:55:35.776Z,9.00
2019-02-04T18:58:13.276Z,9.47
2019-02-04T19:00:50.817Z,9.20
2019-02-04T19:03:28.323Z,8.90
2019-02-04T19:06:05.852Z,9.53
2019-02-04T19:08:43.360Z,9.73
2019-02-04T19:11:20.895Z,10.73
2019-02-04T19:13:58.408Z,10.23
2019-02-04T19:16:35.953Z,9.57
2019-02-04T19:19:13.478Z,9.70
2019-02-04T19:21:51.008Z,9.37
2019-02-04T19:24:28.529Z,8.17
2019-02-04T19:27:06.104Z,8.23
2019-02-04T19:29:43.641Z,8.43
2019-02-04T19:32:21.165Z,8.00
2019-02-04T19:34:58.735Z,8.60
2019-02-04T19:37:36.262Z,9.20
2019-02-04T19:40:14.013Z,8.43
2019-02-04T19:42:51.549Z,8.23
2019-02-04T19:45:29.167Z,8.97
2019-02-04T19:48:06.678Z,8.70
2019-02-04T19:50:44.205Z,8.67
2019-02-04T19:53:22.802Z,9.30
2019-02-04T19:55:59.243Z,8.63
2019-02-04T19:58:36.753Z,8.23
2019-02-04T20:01:14.277Z,7.93
2019-02-04T20:03:51.784Z,8.87
2019-02-04T20:06:29.323Z,9.27
2019-02-04T20:09:08.785Z,8.43
2019-02-04T20:11:46.379Z,7.90
2019-02-04T20:14:24.407Z,7.67
2019-02-04T20:17:02.508Z,8.00
2019-02-04T20:19:40.655Z,7.57
2019-02-04T20:22:22.014Z,8.03
2019-02-04T20:25:00.844Z,8.07
2019-02-04T20:27:39.455Z,8.80
2019-02-04T20:30:25.414Z,7.70
2019-02-04T20:33:04.308Z,7.07
2019-02-04T20:35:42.761Z,8.43
2019-02-04T20:38:21.325Z,7.83
2019-02-04T20:40:59.540Z,8.23
2019-02-04T20:43:38.958Z,7.53
2019-02-04T20:46:17.136Z,8.50
2019-02-04T20:48:55.805Z,7.40
2019-02-04T20:51:34.081Z,7.80
2019-02-04T20:54:19.515Z,7.47
2019-02-04T20:56:50.474Z,7.27
2019-02-04T20:59:28.506Z,7.47
2019-02-04T21:02:06.968Z,7.23
2019-02-04T21:04:45.181Z,7.57
2019-02-04T21:07:23.680Z,7.87
2019-02-04T21:10:02.014Z,6.93
2019-02-04T21:12:39.641Z,7.43
2019-02-04T21:15:18.406Z,7.43
2019-02-04T21:17:56.202Z,6.87
2019-02-04T21:20:33.892Z,6.07
2019-02-04T21:23:11.660Z,7.30
2019-02-04T21:25:49.444Z,6.93
2019-02-04T21:28:26.992Z,6.70
2019-02-04T21:31:04.521Z,6.10
2019-02-04T21:33:42.054Z,6.80
2019-02-04T21:36:19.592Z,6.93
2019-02-04T21:38:57.103Z,6.40
2019-02-04T21:41:37.941Z,6.60
2019-02-04T21:44:15.340Z,6.20
2019-02-04T21:46:52.971Z,6.37
2019-02-04T21:49:30.488Z,6.40
2019-02-04T21:52:08.047Z,7.20
2019-02-04T21:54:45.561Z,7.00
2019-02-04T21:57:23.100Z,6.93
2019-02-04T22:00:00.609Z,6.43
2019-02-04T22:02:38.145Z,6.90
2019-02-04T22:05:17.622Z,5.93
2019-02-04T22:07:55.152Z,6.60
2019-02-04T22:10:33.084Z,7.40
2019-02-04T22:13:10.623Z,6.70
2019-02-04T22:15:48.128Z,7.10
2019-02-04T22:18:25.693Z,7.20
2019-02-04T22:21:03.218Z,7.23
2019-02-04T22:23:40.764Z,7.27
2019-02-04T22:26:18.268Z,6.37
2019-02-04T22:28:55.892Z,6.30
2019-02-04T22:31:33.389Z,7.17
2019-02-04T22:34:10.935Z,6.60
2019-02-04T22:36:48.469Z,6.37
2019-02-04T22:39:25.983Z,6.53
2019-02-04T22:42:03.876Z,6.87
2019-02-04T22:44:41.402Z,5.67
2019-02-04T22:47:18.955Z,6.33
2019-02-04T22:49:56.464Z,6.40
2019-02-04T22:52:34.013Z,7.13
2019-02-04T22:55:11.904Z,7.00
2019-02-04T22:57:49.416Z,6.07
2019-02-04T23:01:00.776Z,6.20
2019-02-04T23:03:38.313Z,6.50
2019-02-04T23:06:15.822Z,6.27
2019-02-04T23:08:53.381Z,6.13
2019-02-04T23:11:30.918Z,6.50
2019-02-04T23:14:08.849Z,6.73
2019-02-04T23:16:46.363Z,6.07
2019-02-04T23:19:23.916Z,6.73
2019-02-04T23:22:01.427Z,6.20
2019-02-04T23:24:38.988Z,6.17
2019-02-04T23:27:16.542Z,7.10
2019-02-04T23:29:54.089Z,6.30
2019-02-04T23:32:31.610Z,5.73
2019-02-04T23:35:09.233Z,6.70
2019-02-04T23:37:46.773Z,7.00
2019-02-04T23:40:24.287Z,6.40
2019-02-04T23:43:01.827Z,6.47
2019-02-04T23:45:39.339Z,6.47
2019-02-04T23:48:16.895Z,6.53
2019-02-04T23:50:54.409Z,6.17
2019-02-04T23:53:31.933Z,5.80
2019-02-04T23:56:09.468Z,6.53
2019-02-04T23:58:46.999Z,6.30
